sensor_id;sensor_type;location;lat;lon;timestamp;temperature;humidity
23532;DHT22;11943;52.270;20.978;2023-04-21T00:01:16;9.60;99.90
23532;DHT22;11943;52.270;20.978;2023-04-21T00:03:42;9.60;99.90
23532;DHT22;11943;52.270;20.978;2023-04-21T00:06:08;9.50;99.90
23532;DHT22;11943;52.270;20.978;2023-04-21T00:08:34;9.50;99.90
23532;DHT22;11943;52.270;20.978;2023-04-21T00:11:09;9.50;99.90
23532;DHT22;11943;52.270;20.978;2023-04-21T00:13:35;9.50;99.90
23532;DHT22;11943;52.270;20.978;2023-04-21T00:16:02;9.40;99.90
23532;DHT22;11943;52.270;20.978;2023-04-21T00:18:27;9.40;99.90
23532;DHT22;11943;52.270;20.978;2023-04-21T00:20:53;9.40;99.90
23532;DHT22;11943;52.270;20.978;2023-04-21T00:23:19;9.40;99.90
23532;DHT22;11943;52.270;20.978;2023-04-21T00:25:45;9.30;99.90
23532;DHT22;11943;52.270;20.978;2023-04-21T00:28:10;9.40;99.90
23532;DHT22;11943;52.270;20.978;2023-04-21T00:30:36;9.30;99.90
23532;DHT22;11943;52.270;20.978;2023-04-21T00:33:02;9.30;99.90
23532;DHT22;11943;52.270;20.978;2023-04-21T00:35:27;9.30;99.90
23532;DHT22;11943;52.270;20.978;2023-04-21T00:37:53;9.30;99.90
23532;DHT22;11943;52.270;20.978;2023-04-21T00:40:19;9.30;99.90
23532;DHT22;11943;52.270;20.978;2023-04-21T00:42:44;9.20;99.90
23532;DHT22;11943;52.270;20.978;2023-04-21T00:45:10;9.20;99.90
23532;DHT22;11943;52.270;20.978;2023-04-21T00:47:36;9.20;99.90
23532;DHT22;11943;52.270;20.978;2023-04-21T00:50:02;9.20;99.90
23532;DHT22;11943;52.270;20.978;2023-04-21T00:52:29;9.20;99.90
23532;DHT22;11943;52.270;20.978;2023-04-21T00:54:55;9.20;99.90
23532;DHT22;11943;52.270;20.978;2023-04-21T00:57:22;9.20;99.90
23532;DHT22;11943;52.270;20.978;2023-04-21T00:59:48;9.10;99.90
23532;DHT22;11943;52.270;20.978;2023-04-21T01:02:15;9.10;99.90
23532;DHT22;11943;52.270;20.978;2023-04-21T01:04:42;9.10;99.90
23532;DHT22;11943;52.270;20.978;2023-04-21T01:07:08;9.10;99.90
23532;DHT22;11943;52.270;20.978;2023-04-21T01:09:34;9.00;99.90
23532;DHT22;11943;52.270;20.978;2023-04-21T01:12:07;9.00;99.90
23532;DHT22;11943;52.270;20.978;2023-04-21T01:14:34;8.90;99.90
23532;DHT22;11943;52.270;20.978;2023-04-21T01:17:00;8.90;99.90
23532;DHT22;11943;52.270;20.978;2023-04-21T01:19:32;9.00;99.90
23532;DHT22;11943;52.270;20.978;2023-04-21T01:21:59;9.00;99.90
23532;DHT22;11943;52.270;20.978;2023-04-21T01:27:15;8.90;99.90
23532;DHT22;11943;52.270;20.978;2023-04-21T01:29:44;8.90;99.90
23532;DHT22;11943;52.270;20.978;2023-04-21T01:32:17;8.90;99.90
23532;DHT22;11943;52.270;20.978;2023-04-21T01:34:43;8.80;99.90
23532;DHT22;11943;52.270;20.978;2023-04-21T01:37:11;8.80;99.90
23532;DHT22;11943;52.270;20.978;2023-04-21T01:39:42;8.70;99.90
23532;DHT22;11943;52.270;20.978;2023-04-21T01:42:08;8.80;99.90
23532;DHT22;11943;52.270;20.978;2023-04-21T01:44:34;8.80;99.90
23532;DHT22;11943;52.270;20.978;2023-04-21T01:47:00;8.80;99.90
23532;DHT22;11943;52.270;20.978;2023-04-21T01:49:26;8.80;99.90
23532;DHT22;11943;52.270;20.978;2023-04-21T01:51:51;8.70;99.90
23532;DHT22;11943;52.270;20.978;2023-04-21T01:54:17;8.70;99.90
23532;DHT22;11943;52.270;20.978;2023-04-21T01:56:43;8.70;99.90
23532;DHT22;11943;52.270;20.978;2023-04-21T01:59:08;8.60;99.90
23532;DHT22;11943;52.270;20.978;2023-04-21T02:01:34;8.60;99.90
23532;DHT22;11943;52.270;20.978;2023-04-21T02:04:01;8.60;99.90
23532;DHT22;11943;52.270;20.978;2023-04-21T02:06:27;8.60;99.90
23532;DHT22;11943;52.270;20.978;2023-04-21T02:08:54;8.50;99.90
23532;DHT22;11943;52.270;20.978;2023-04-21T02:11:19;8.50;99.90
23532;DHT22;11943;52.270;20.978;2023-04-21T02:13:45;8.50;99.90
23532;DHT22;11943;52.270;20.978;2023-04-21T02:16:11;8.50;99.90
23532;DHT22;11943;52.270;20.978;2023-04-21T02:18:36;8.50;99.90
23532;DHT22;11943;52.270;20.978;2023-04-21T02:21:05;8.50;99.90
23532;DHT22;11943;52.270;20.978;2023-04-21T02:23:30;8.50;99.90
23532;DHT22;11943;52.270;20.978;2023-04-21T02:25:56;8.40;99.90
23532;DHT22;11943;52.270;20.978;2023-04-21T02:28:22;8.40;99.90
23532;DHT22;11943;52.270;20.978;2023-04-21T02:30:47;8.40;99.90
23532;DHT22;11943;52.270;20.978;2023-04-21T02:33:13;8.30;99.90
23532;DHT22;11943;52.270;20.978;2023-04-21T02:35:39;8.30;99.90
23532;DHT22;11943;52.270;20.978;2023-04-21T02:38:04;8.30;99.90
23532;DHT22;11943;52.270;20.978;2023-04-21T02:40:33;8.30;99.90
23532;DHT22;11943;52.270;20.978;2023-04-21T02:42:58;8.30;99.90
23532;DHT22;11943;52.270;20.978;2023-04-21T02:45:24;8.20;99.90
23532;DHT22;11943;52.270;20.978;2023-04-21T02:47:50;8.20;99.90
23532;DHT22;11943;52.270;20.978;2023-04-21T02:50:16;8.10;99.90
23532;DHT22;11943;52.270;20.978;2023-04-21T02:52:41;8.10;99.90
23532;DHT22;11943;52.270;20.978;2023-04-21T02:55:07;8.10;99.90
23532;DHT22;11943;52.270;20.978;2023-04-21T02:57:33;8.10;99.90
23532;DHT22;11943;52.270;20.978;2023-04-21T02:59:59;8.10;99.90
23532;DHT22;11943;52.270;20.978;2023-04-21T03:02:24;8.00;99.90
23532;DHT22;11943;52.270;20.978;2023-04-21T03:04:50;8.00;99.90
23532;DHT22;11943;52.270;20.978;2023-04-21T03:07:17;8.00;99.90
23532;DHT22;11943;52.270;20.978;2023-04-21T03:09:43;7.90;99.90
23532;DHT22;11943;52.270;20.978;2023-04-21T03:12:08;8.00;99.90
23532;DHT22;11943;52.270;20.978;2023-04-21T03:14:34;7.90;99.90
23532;DHT22;11943;52.270;20.978;2023-04-21T03:17:00;7.90;99.90
23532;DHT22;11943;52.270;20.978;2023-04-21T03:19:25;7.80;99.90
23532;DHT22;11943;52.270;20.978;2023-04-21T03:21:51;7.90;99.90
23532;DHT22;11943;52.270;20.978;2023-04-21T03:24:17;7.80;99.90
23532;DHT22;11943;52.270;20.978;2023-04-21T03:26:42;7.80;99.90
23532;DHT22;11943;52.270;20.978;2023-04-21T03:29:08;7.70;99.90
23532;DHT22;11943;52.270;20.978;2023-04-21T03:31:33;7.70;99.90
23532;DHT22;11943;52.270;20.978;2023-04-21T03:33:59;7.70;99.90
23532;DHT22;11943;52.270;20.978;2023-04-21T03:36:25;7.70;99.90
23532;DHT22;11943;52.270;20.978;2023-04-21T03:38:50;7.70;99.90
23532;DHT22;11943;52.270;20.978;2023-04-21T03:41:16;7.70;99.90
23532;DHT22;11943;52.270;20.978;2023-04-21T03:43:42;7.70;99.90
23532;DHT22;11943;52.270;20.978;2023-04-21T03:46:07;7.70;99.90
23532;DHT22;11943;52.270;20.978;2023-04-21T03:48:41;7.70;99.90
23532;DHT22;11943;52.270;20.978;2023-04-21T03:51:06;7.70;99.90
23532;DHT22;11943;52.270;20.978;2023-04-21T03:53:32;7.80;99.90
23532;DHT22;11943;52.270;20.978;2023-04-21T03:55:57;7.80;99.90
23532;DHT22;11943;52.270;20.978;2023-04-21T03:58:23;7.90;99.90
23532;DHT22;11943;52.270;20.978;2023-04-21T04:00:49;7.90;99.90
23532;DHT22;11943;52.270;20.978;2023-04-21T04:03:14;7.90;99.90
23532;DHT22;11943;52.270;20.978;2023-04-21T04:05:40;7.90;99.90
23532;DHT22;11943;52.270;20.978;2023-04-21T04:08:06;7.90;99.90
23532;DHT22;11943;52.270;20.978;2023-04-21T04:10:31;7.90;99.90
23532;DHT22;11943;52.270;20.978;2023-04-21T04:12:57;7.90;99.90
23532;DHT22;11943;52.270;20.978;2023-04-21T04:15:22;7.90;99.90
23532;DHT22;11943;52.270;20.978;2023-04-21T04:17:48;8.00;99.90
23532;DHT22;11943;52.270;20.978;2023-04-21T04:20:14;8.00;99.90
23532;DHT22;11943;52.270;20.978;2023-04-21T04:22:39;8.00;99.90
23532;DHT22;11943;52.270;20.978;2023-04-21T04:25:05;8.00;99.90
23532;DHT22;11943;52.270;20.978;2023-04-21T04:27:31;8.10;99.90
23532;DHT22;11943;52.270;20.978;2023-04-21T04:29:57;8.10;99.90
23532;DHT22;11943;52.270;20.978;2023-04-21T04:32:23;8.10;99.90
23532;DHT22;11943;52.270;20.978;2023-04-21T04:34:53;8.10;99.90
23532;DHT22;11943;52.270;20.978;2023-04-21T04:37:20;8.20;99.90
23532;DHT22;11943;52.270;20.978;2023-04-21T04:39:46;8.20;99.90
23532;DHT22;11943;52.270;20.978;2023-04-21T04:42:12;8.20;99.90
23532;DHT22;11943;52.270;20.978;2023-04-21T04:44:38;8.30;99.90
23532;DHT22;11943;52.270;20.978;2023-04-21T04:47:06;8.30;99.90
23532;DHT22;11943;52.270;20.978;2023-04-21T04:49:31;8.40;99.90
23532;DHT22;11943;52.270;20.978;2023-04-21T04:51:57;8.40;99.90
23532;DHT22;11943;52.270;20.978;2023-04-21T04:54:24;8.50;99.90
23532;DHT22;11943;52.270;20.978;2023-04-21T04:56:49;8.50;99.90
23532;DHT22;11943;52.270;20.978;2023-04-21T04:59:15;8.60;99.90
23532;DHT22;11943;52.270;20.978;2023-04-21T05:01:41;8.70;99.90
23532;DHT22;11943;52.270;20.978;2023-04-21T05:04:06;8.70;99.90
23532;DHT22;11943;52.270;20.978;2023-04-21T05:06:32;8.70;99.40
23532;DHT22;11943;52.270;20.978;2023-04-21T05:08:58;8.80;99.30
23532;DHT22;11943;52.270;20.978;2023-04-21T05:11:23;8.80;99.10
23532;DHT22;11943;52.270;20.978;2023-04-21T05:13:49;8.90;98.70
23532;DHT22;11943;52.270;20.978;2023-04-21T05:16:14;9.00;97.80
23532;DHT22;11943;52.270;20.978;2023-04-21T05:18:40;9.10;96.90
23532;DHT22;11943;52.270;20.978;2023-04-21T05:21:06;9.20;96.80
23532;DHT22;11943;52.270;20.978;2023-04-21T05:23:31;9.30;95.10
23532;DHT22;11943;52.270;20.978;2023-04-21T05:25:57;9.30;93.00
23532;DHT22;11943;52.270;20.978;2023-04-21T05:28:23;9.50;93.10
23532;DHT22;11943;52.270;20.978;2023-04-21T05:30:49;9.90;92.60
23532;DHT22;11943;52.270;20.978;2023-04-21T05:33:17;10.40;90.60
23532;DHT22;11943;52.270;20.978;2023-04-21T05:35:43;11.00;87.70
23532;DHT22;11943;52.270;20.978;2023-04-21T05:38:09;11.60;82.10
23532;DHT22;11943;52.270;20.978;2023-04-21T05:40:35;12.20;79.90
23532;DHT22;11943;52.270;20.978;2023-04-21T05:43:00;12.50;78.40
23532;DHT22;11943;52.270;20.978;2023-04-21T05:45:26;13.10;73.10
23532;DHT22;11943;52.270;20.978;2023-04-21T05:47:52;13.30;70.00
23532;DHT22;11943;52.270;20.978;2023-04-21T05:50:17;13.40;69.10
23532;DHT22;11943;52.270;20.978;2023-04-21T05:52:43;13.80;67.20
23532;DHT22;11943;52.270;20.978;2023-04-21T05:55:09;14.10;64.90
23532;DHT22;11943;52.270;20.978;2023-04-21T05:57:34;14.40;64.60
23532;DHT22;11943;52.270;20.978;2023-04-21T06:00:00;14.40;64.30
23532;DHT22;11943;52.270;20.978;2023-04-21T06:02:26;14.40;62.20
23532;DHT22;11943;52.270;20.978;2023-04-21T06:04:51;14.50;61.80
23532;DHT22;11943;52.270;20.978;2023-04-21T06:07:18;14.40;61.90
23532;DHT22;11943;52.270;20.978;2023-04-21T06:09:44;14.40;63.20
23532;DHT22;11943;52.270;20.978;2023-04-21T06:12:13;14.20;61.10
23532;DHT22;11943;52.270;20.978;2023-04-21T06:14:39;14.30;62.60
23532;DHT22;11943;52.270;20.978;2023-04-21T06:17:04;14.30;61.40
23532;DHT22;11943;52.270;20.978;2023-04-21T06:19:36;14.10;61.30
23532;DHT22;11943;52.270;20.978;2023-04-21T06:22:02;13.50;63.70
23532;DHT22;11943;52.270;20.978;2023-04-21T06:24:31;13.40;66.70
23532;DHT22;11943;52.270;20.978;2023-04-21T06:26:57;13.40;65.80
23532;DHT22;11943;52.270;20.978;2023-04-21T06:29:23;13.20;65.20
23532;DHT22;11943;52.270;20.978;2023-04-21T06:31:48;13.20;67.00
23532;DHT22;11943;52.270;20.978;2023-04-21T06:34:14;13.20;67.10
23532;DHT22;11943;52.270;20.978;2023-04-21T06:36:40;13.30;66.20
23532;DHT22;11943;52.270;20.978;2023-04-21T06:39:06;13.40;65.80
23532;DHT22;11943;52.270;20.978;2023-04-21T06:41:31;13.60;65.00
23532;DHT22;11943;52.270;20.978;2023-04-21T06:43:57;13.70;63.70
23532;DHT22;11943;52.270;20.978;2023-04-21T06:46:23;13.80;64.30
23532;DHT22;11943;52.270;20.978;2023-04-21T06:48:49;13.90;64.10
23532;DHT22;11943;52.270;20.978;2023-04-21T06:51:14;13.90;63.30
23532;DHT22;11943;52.270;20.978;2023-04-21T06:53:40;13.70;62.50
23532;DHT22;11943;52.270;20.978;2023-04-21T06:56:07;13.90;63.20
23532;DHT22;11943;52.270;20.978;2023-04-21T06:58:33;13.90;61.70
23532;DHT22;11943;52.270;20.978;2023-04-21T07:00:58;14.10;62.20
23532;DHT22;11943;52.270;20.978;2023-04-21T07:03:24;14.20;60.00
23532;DHT22;11943;52.270;20.978;2023-04-21T07:05:50;14.30;60.50
23532;DHT22;11943;52.270;20.978;2023-04-21T07:08:16;14.50;61.20
23532;DHT22;11943;52.270;20.978;2023-04-21T07:10:42;14.60;59.90
23532;DHT22;11943;52.270;20.978;2023-04-21T07:13:08;14.60;59.70
23532;DHT22;11943;52.270;20.978;2023-04-21T07:15:34;14.70;58.70
23532;DHT22;11943;52.270;20.978;2023-04-21T07:18:00;14.80;58.70
23532;DHT22;11943;52.270;20.978;2023-04-21T07:20:26;14.90;57.80
23532;DHT22;11943;52.270;20.978;2023-04-21T07:22:51;15.00;58.10
23532;DHT22;11943;52.270;20.978;2023-04-21T07:25:17;15.10;59.60
23532;DHT22;11943;52.270;20.978;2023-04-21T07:27:44;15.20;56.90
23532;DHT22;11943;52.270;20.978;2023-04-21T07:30:10;15.40;56.50
23532;DHT22;11943;52.270;20.978;2023-04-21T07:32:35;15.20;55.50
23532;DHT22;11943;52.270;20.978;2023-04-21T07:35:03;15.50;57.00
23532;DHT22;11943;52.270;20.978;2023-04-21T07:37:29;15.70;56.60
23532;DHT22;11943;52.270;20.978;2023-04-21T07:39:55;15.60;55.10
23532;DHT22;11943;52.270;20.978;2023-04-21T07:42:21;15.70;55.00
23532;DHT22;11943;52.270;20.978;2023-04-21T07:44:46;15.70;55.50
23532;DHT22;11943;52.270;20.978;2023-04-21T07:47:13;15.80;56.50
23532;DHT22;11943;52.270;20.978;2023-04-21T07:49:38;16.00;54.90
23532;DHT22;11943;52.270;20.978;2023-04-21T07:52:04;16.10;54.80
23532;DHT22;11943;52.270;20.978;2023-04-21T07:54:32;16.20;54.10
23532;DHT22;11943;52.270;20.978;2023-04-21T07:56:58;16.30;52.60
23532;DHT22;11943;52.270;20.978;2023-04-21T07:59:24;16.60;52.70
23532;DHT22;11943;52.270;20.978;2023-04-21T08:01:50;16.40;52.20
23532;DHT22;11943;52.270;20.978;2023-04-21T08:04:16;16.60;52.40
23532;DHT22;11943;52.270;20.978;2023-04-21T08:06:42;16.70;53.20
23532;DHT22;11943;52.270;20.978;2023-04-21T08:09:07;17.00;53.80
23532;DHT22;11943;52.270;20.978;2023-04-21T08:11:33;17.00;53.00
23532;DHT22;11943;52.270;20.978;2023-04-21T08:13:58;17.30;51.00
23532;DHT22;11943;52.270;20.978;2023-04-21T08:16:24;17.20;49.20
23532;DHT22;11943;52.270;20.978;2023-04-21T08:18:50;17.10;49.20
23532;DHT22;11943;52.270;20.978;2023-04-21T08:21:15;17.40;49.30
23532;DHT22;11943;52.270;20.978;2023-04-21T08:23:41;17.30;48.60
23532;DHT22;11943;52.270;20.978;2023-04-21T08:26:08;17.40;48.30
23532;DHT22;11943;52.270;20.978;2023-04-21T08:28:34;17.60;47.30
23532;DHT22;11943;52.270;20.978;2023-04-21T08:31:01;17.50;48.30
23532;DHT22;11943;52.270;20.978;2023-04-21T08:33:27;17.70;48.40
23532;DHT22;11943;52.270;20.978;2023-04-21T08:35:53;17.60;46.80
23532;DHT22;11943;52.270;20.978;2023-04-21T08:38:20;17.60;47.30
23532;DHT22;11943;52.270;20.978;2023-04-21T08:40:47;17.90;45.50
23532;DHT22;11943;52.270;20.978;2023-04-21T08:43:17;17.80;44.30
23532;DHT22;11943;52.270;20.978;2023-04-21T08:45:42;17.70;43.40
23532;DHT22;11943;52.270;20.978;2023-04-21T08:50:51;17.60;42.80
23532;DHT22;11943;52.270;20.978;2023-04-21T08:53:22;17.50;43.70
23532;DHT22;11943;52.270;20.978;2023-04-21T08:55:51;17.90;44.40
23532;DHT22;11943;52.270;20.978;2023-04-21T08:58:19;17.80;43.50
23532;DHT22;11943;52.270;20.978;2023-04-21T09:00:47;18.30;44.30
23532;DHT22;11943;52.270;20.978;2023-04-21T09:03:20;17.80;44.10
23532;DHT22;11943;52.270;20.978;2023-04-21T09:06:00;17.90;44.40
23532;DHT22;11943;52.270;20.978;2023-04-21T09:08:27;18.30;43.50
23532;DHT22;11943;52.270;20.978;2023-04-21T09:10:54;18.40;43.50
23532;DHT22;11943;52.270;20.978;2023-04-21T09:13:21;18.50;41.70
23532;DHT22;11943;52.270;20.978;2023-04-21T09:15:54;18.10;40.70
23532;DHT22;11943;52.270;20.978;2023-04-21T09:18:24;18.20;41.80
23532;DHT22;11943;52.270;20.978;2023-04-21T09:21:11;18.40;42.20
23532;DHT22;11943;52.270;20.978;2023-04-21T09:26:10;18.50;41.80
23532;DHT22;11943;52.270;20.978;2023-04-21T09:28:35;18.60;41.00
23532;DHT22;11943;52.270;20.978;2023-04-21T09:31:01;18.60;40.10
23532;DHT22;11943;52.270;20.978;2023-04-21T09:33:27;18.50;40.30
23532;DHT22;11943;52.270;20.978;2023-04-21T09:35:52;18.70;40.80
23532;DHT22;11943;52.270;20.978;2023-04-21T09:38:21;18.70;40.80
23532;DHT22;11943;52.270;20.978;2023-04-21T09:40:58;18.90;40.00
23532;DHT22;11943;52.270;20.978;2023-04-21T09:43:24;19.10;41.30
23532;DHT22;11943;52.270;20.978;2023-04-21T09:45:50;19.20;39.60
23532;DHT22;11943;52.270;20.978;2023-04-21T09:48:17;19.20;41.10
23532;DHT22;11943;52.270;20.978;2023-04-21T09:50:44;19.40;41.10
23532;DHT22;11943;52.270;20.978;2023-04-21T09:53:15;19.20;40.10
23532;DHT22;11943;52.270;20.978;2023-04-21T09:55:42;19.40;40.20
23532;DHT22;11943;52.270;20.978;2023-04-21T09:58:12;19.00;40.60
23532;DHT22;11943;52.270;20.978;2023-04-21T10:00:41;19.30;39.40
23532;DHT22;11943;52.270;20.978;2023-04-21T10:03:08;19.50;38.90
23532;DHT22;11943;52.270;20.978;2023-04-21T10:05:37;19.30;37.50
23532;DHT22;11943;52.270;20.978;2023-04-21T10:08:03;19.00;36.70
23532;DHT22;11943;52.270;20.978;2023-04-21T10:10:32;18.90;36.80
23532;DHT22;11943;52.270;20.978;2023-04-21T10:13:00;19.10;38.10
23532;DHT22;11943;52.270;20.978;2023-04-21T10:15:34;18.90;37.00
23532;DHT22;11943;52.270;20.978;2023-04-21T10:20:51;19.10;38.80
23532;DHT22;11943;52.270;20.978;2023-04-21T10:31:34;19.70;37.20
23532;DHT22;11943;52.270;20.978;2023-04-21T10:39:32;19.90;36.90
23532;DHT22;11943;52.270;20.978;2023-04-21T10:44:42;20.20;37.30
23532;DHT22;11943;52.270;20.978;2023-04-21T10:47:08;19.90;35.70
23532;DHT22;11943;52.270;20.978;2023-04-21T10:49:37;19.90;36.50
23532;DHT22;11943;52.270;20.978;2023-04-21T10:52:04;20.10;36.40
23532;DHT22;11943;52.270;20.978;2023-04-21T10:54:43;20.30;35.90
23532;DHT22;11943;52.270;20.978;2023-04-21T10:57:31;19.70;35.70
23532;DHT22;11943;52.270;20.978;2023-04-21T10:59:58;20.00;36.90
23532;DHT22;11943;52.270;20.978;2023-04-21T11:02:25;19.70;34.30
23532;DHT22;11943;52.270;20.978;2023-04-21T11:04:51;19.90;33.80
23532;DHT22;11943;52.270;20.978;2023-04-21T11:09:47;20.30;35.30
23532;DHT22;11943;52.270;20.978;2023-04-21T11:12:16;19.90;35.40
23532;DHT22;11943;52.270;20.978;2023-04-21T11:14:45;19.80;35.20
23532;DHT22;11943;52.270;20.978;2023-04-21T11:17:17;20.00;36.40
23532;DHT22;11943;52.270;20.978;2023-04-21T11:19:54;20.00;35.10
23532;DHT22;11943;52.270;20.978;2023-04-21T11:22:22;20.10;34.30
23532;DHT22;11943;52.270;20.978;2023-04-21T11:24:50;20.40;34.20
23532;DHT22;11943;52.270;20.978;2023-04-21T11:27:17;20.20;33.90
23532;DHT22;11943;52.270;20.978;2023-04-21T11:29:44;19.90;34.80
23532;DHT22;11943;52.270;20.978;2023-04-21T11:32:13;20.00;34.20
23532;DHT22;11943;52.270;20.978;2023-04-21T11:34:39;20.20;34.30
23532;DHT22;11943;52.270;20.978;2023-04-21T11:37:29;20.20;34.10
23532;DHT22;11943;52.270;20.978;2023-04-21T11:40:01;20.20;33.80
23532;DHT22;11943;52.270;20.978;2023-04-21T11:42:29;20.00;34.00
23532;DHT22;11943;52.270;20.978;2023-04-21T11:44:55;20.00;32.90
23532;DHT22;11943;52.270;20.978;2023-04-21T11:47:25;20.10;33.20
23532;DHT22;11943;52.270;20.978;2023-04-21T11:49:56;20.10;35.50
23532;DHT22;11943;52.270;20.978;2023-04-21T11:52:33;20.30;33.70
23532;DHT22;11943;52.270;20.978;2023-04-21T11:55:11;20.20;33.30
23532;DHT22;11943;52.270;20.978;2023-04-21T11:57:40;20.20;33.30
23532;DHT22;11943;52.270;20.978;2023-04-21T12:00:08;20.40;32.70
23532;DHT22;11943;52.270;20.978;2023-04-21T12:02:36;20.60;34.50
23532;DHT22;11943;52.270;20.978;2023-04-21T12:05:04;20.70;32.50
23532;DHT22;11943;52.270;20.978;2023-04-21T12:07:36;20.70;32.70
23532;DHT22;11943;52.270;20.978;2023-04-21T12:10:07;20.30;31.30
23532;DHT22;11943;52.270;20.978;2023-04-21T12:12:39;20.50;33.00
23532;DHT22;11943;52.270;20.978;2023-04-21T12:15:07;20.60;33.30
23532;DHT22;11943;52.270;20.978;2023-04-21T12:17:59;20.30;33.30
23532;DHT22;11943;52.270;20.978;2023-04-21T12:20:28;20.30;32.30
23532;DHT22;11943;52.270;20.978;2023-04-21T12:22:53;20.30;33.00
23532;DHT22;11943;52.270;20.978;2023-04-21T12:25:20;20.40;33.60
23532;DHT22;11943;52.270;20.978;2023-04-21T12:27:50;20.70;35.10
23532;DHT22;11943;52.270;20.978;2023-04-21T12:30:17;20.90;32.40
23532;DHT22;11943;52.270;20.978;2023-04-21T12:32:43;20.70;32.00
23532;DHT22;11943;52.270;20.978;2023-04-21T12:35:09;20.50;33.10
23532;DHT22;11943;52.270;20.978;2023-04-21T12:37:35;20.60;34.20
23532;DHT22;11943;52.270;20.978;2023-04-21T12:40:00;20.80;33.30
23532;DHT22;11943;52.270;20.978;2023-04-21T12:42:26;20.30;31.10
23532;DHT22;11943;52.270;20.978;2023-04-21T12:44:52;20.30;33.20
23532;DHT22;11943;52.270;20.978;2023-04-21T12:47:17;20.80;34.70
23532;DHT22;11943;52.270;20.978;2023-04-21T12:49:43;20.80;32.50
23532;DHT22;11943;52.270;20.978;2023-04-21T12:52:08;20.40;32.50
23532;DHT22;11943;52.270;20.978;2023-04-21T12:54:34;20.50;33.00
23532;DHT22;11943;52.270;20.978;2023-04-21T12:57:00;20.30;33.40
23532;DHT22;11943;52.270;20.978;2023-04-21T12:59:26;20.60;32.20
23532;DHT22;11943;52.270;20.978;2023-04-21T13:01:52;20.60;35.00
23532;DHT22;11943;52.270;20.978;2023-04-21T13:04:17;20.80;34.60
23532;DHT22;11943;52.270;20.978;2023-04-21T13:06:43;21.00;33.70
23532;DHT22;11943;52.270;20.978;2023-04-21T13:09:09;21.20;33.90
23532;DHT22;11943;52.270;20.978;2023-04-21T13:11:35;20.60;33.40
23532;DHT22;11943;52.270;20.978;2023-04-21T13:14:01;20.90;35.40
23532;DHT22;11943;52.270;20.978;2023-04-21T13:16:28;20.70;33.20
23532;DHT22;11943;52.270;20.978;2023-04-21T13:18:55;20.60;34.20
23532;DHT22;11943;52.270;20.978;2023-04-21T13:21:21;20.40;33.30
23532;DHT22;11943;52.270;20.978;2023-04-21T13:23:47;20.30;33.90
23532;DHT22;11943;52.270;20.978;2023-04-21T13:26:13;20.40;35.20
23532;DHT22;11943;52.270;20.978;2023-04-21T13:28:39;20.70;34.90
23532;DHT22;11943;52.270;20.978;2023-04-21T13:31:05;21.00;35.20
23532;DHT22;11943;52.270;20.978;2023-04-21T13:33:31;21.10;34.20
23532;DHT22;11943;52.270;20.978;2023-04-21T13:36:00;21.20;33.70
23532;DHT22;11943;52.270;20.978;2023-04-21T13:38:26;21.20;34.90
23532;DHT22;11943;52.270;20.978;2023-04-21T13:40:52;20.90;33.90
23532;DHT22;11943;52.270;20.978;2023-04-21T13:43:18;21.10;33.40
23532;DHT22;11943;52.270;20.978;2023-04-21T13:45:44;21.10;32.50
23532;DHT22;11943;52.270;20.978;2023-04-21T13:48:11;21.10;32.30
23532;DHT22;11943;52.270;20.978;2023-04-21T13:50:37;21.00;34.10
23532;DHT22;11943;52.270;20.978;2023-04-21T13:53:02;21.20;34.30
23532;DHT22;11943;52.270;20.978;2023-04-21T13:55:28;21.20;33.60
23532;DHT22;11943;52.270;20.978;2023-04-21T13:57:54;21.10;32.70
23532;DHT22;11943;52.270;20.978;2023-04-21T14:00:19;21.10;33.20
23532;DHT22;11943;52.270;20.978;2023-04-21T14:02:46;21.20;33.40
23532;DHT22;11943;52.270;20.978;2023-04-21T14:05:12;21.00;32.70
23532;DHT22;11943;52.270;20.978;2023-04-21T14:07:38;20.70;32.40
23532;DHT22;11943;52.270;20.978;2023-04-21T14:10:04;20.80;35.30
23532;DHT22;11943;52.270;20.978;2023-04-21T14:12:30;20.80;33.20
23532;DHT22;11943;52.270;20.978;2023-04-21T14:14:55;20.70;33.60
23532;DHT22;11943;52.270;20.978;2023-04-21T14:17:21;20.70;33.50
23532;DHT22;11943;52.270;20.978;2023-04-21T14:19:47;20.80;34.40
23532;DHT22;11943;52.270;20.978;2023-04-21T14:22:13;20.80;34.80
23532;DHT22;11943;52.270;20.978;2023-04-21T14:24:38;20.90;35.30
23532;DHT22;11943;52.270;20.978;2023-04-21T14:27:04;20.70;33.80
23532;DHT22;11943;52.270;20.978;2023-04-21T14:29:30;20.70;33.10
23532;DHT22;11943;52.270;20.978;2023-04-21T14:31:56;20.60;33.00
23532;DHT22;11943;52.270;20.978;2023-04-21T14:34:24;20.40;34.10
23532;DHT22;11943;52.270;20.978;2023-04-21T14:36:50;20.30;33.40
23532;DHT22;11943;52.270;20.978;2023-04-21T14:39:16;20.40;34.20
23532;DHT22;11943;52.270;20.978;2023-04-21T14:41:42;20.70;34.70
23532;DHT22;11943;52.270;20.978;2023-04-21T14:44:07;20.60;32.80
23532;DHT22;11943;52.270;20.978;2023-04-21T14:46:33;20.60;33.00
23532;DHT22;11943;52.270;20.978;2023-04-21T14:48:59;20.70;34.60
23532;DHT22;11943;52.270;20.978;2023-04-21T14:51:25;20.80;34.70
23532;DHT22;11943;52.270;20.978;2023-04-21T14:53:50;20.80;35.00
23532;DHT22;11943;52.270;20.978;2023-04-21T14:56:16;20.60;34.80
23532;DHT22;11943;52.270;20.978;2023-04-21T14:58:43;20.50;35.30
23532;DHT22;11943;52.270;20.978;2023-04-21T15:01:08;20.40;34.20
23532;DHT22;11943;52.270;20.978;2023-04-21T15:03:35;20.30;35.20
23532;DHT22;11943;52.270;20.978;2023-04-21T15:06:01;20.40;36.10
23532;DHT22;11943;52.270;20.978;2023-04-21T15:08:27;20.30;36.70
23532;DHT22;11943;52.270;20.978;2023-04-21T15:10:52;20.40;36.30
23532;DHT22;11943;52.270;20.978;2023-04-21T15:13:18;20.50;35.50
23532;DHT22;11943;52.270;20.978;2023-04-21T15:15:44;20.70;36.20
23532;DHT22;11943;52.270;20.978;2023-04-21T15:18:09;20.60;35.30
23532;DHT22;11943;52.270;20.978;2023-04-21T15:20:35;20.40;35.80
23532;DHT22;11943;52.270;20.978;2023-04-21T15:23:01;20.00;35.80
23532;DHT22;11943;52.270;20.978;2023-04-21T15:25:27;19.90;36.10
23532;DHT22;11943;52.270;20.978;2023-04-21T15:27:52;19.70;36.90
23532;DHT22;11943;52.270;20.978;2023-04-21T15:30:18;19.80;36.80
23532;DHT22;11943;52.270;20.978;2023-04-21T15:32:43;20.00;37.30
23532;DHT22;11943;52.270;20.978;2023-04-21T15:35:09;19.80;37.40
23532;DHT22;11943;52.270;20.978;2023-04-21T15:37:35;19.70;37.00
23532;DHT22;11943;52.270;20.978;2023-04-21T15:40:00;19.60;36.90
23532;DHT22;11943;52.270;20.978;2023-04-21T15:42:26;19.40;37.90
23532;DHT22;11943;52.270;20.978;2023-04-21T15:44:52;19.30;38.50
23532;DHT22;11943;52.270;20.978;2023-04-21T15:47:18;19.20;38.90
23532;DHT22;11943;52.270;20.978;2023-04-21T15:49:44;19.10;39.00